This is the latest recevied weather packets stored in our database for station/object CQ0XVC-11. If no packets are shown the sender has not sent any weather packets the latest 1 day(s).
| Time | Temp. | Humidity | Pressure | Rain* | Wind** | Luminosity | Snow |
|---|---|---|---|---|---|---|---|
| 1777988836 | 17.22° C | 37% | 1003.2 hPa | 0 mm | 2.24 m/s, 303° | - | - |
| 1777988576 | 16.67° C | 35% | 1003.3 hPa | 0 mm | 2.24 m/s, 67° | - | - |
| 1777988533 | 16.67° C | 35% | 1003.3 hPa | 0 mm | 2.24 m/s, 67° | - | - |
| 1777988231 | 16.67° C | 37% | 1003.4 hPa | 0 mm | 2.68 m/s, 292° | - | - |
| 1777987929 | 17.22° C | 36% | 1003.3 hPa | 0 mm | 0.89 m/s, 90° | - | - |
| 1777987689 | 17.22° C | 36% | 1003.3 hPa | 0 mm | 1.34 m/s, 90° | - | - |
| 1777987627 | 17.22° C | 36% | 1003.3 hPa | 0 mm | 1.34 m/s, 90° | - | - |
| 1777987324 | 17.22° C | 35% | 1003.4 hPa | 0 mm | 0.89 m/s, 337° | - | - |
| 1777987023 | 17.22° C | 36% | 1003.3 hPa | 0 mm | 1.34 m/s, 337° | - | - |
| 1777986752 | 16.67° C | 38% | 1003.4 hPa | 0 mm | 0.89 m/s, 157° | - | - |
| 1777986720 | 16.67° C | 38% | 1003.4 hPa | 0 mm | 0.89 m/s, 157° | - | - |
| 1777986418 | 16.67° C | 38% | 1003.4 hPa | 0 mm | 2.24 m/s, 45° | - | - |
| 1777986116 | 16.67° C | 39% | 1003.6 hPa | 0 mm | 1.34 m/s, 315° | - | - |
| 1777985863 | 16.67° C | 38% | 1003.7 hPa | 0 mm | 0.89 m/s, 78° | - | - |
| 1777985814 | 16.67° C | 38% | 1003.7 hPa | 0 mm | 0.89 m/s, 78° | - | - |
| 1777985511 | 16.67° C | 40% | 1003.6 hPa | 0 mm | 2.24 m/s, 315° | - | - |
| 1777985210 | 16.11° C | 40% | 1003.6 hPa | 0 mm | 1.79 m/s, 180° | - | - |
| 1777984965 | 16.11° C | 40% | 1003.7 hPa | 0 mm | 2.24 m/s, 213° | - | - |
| 1777984907 | 16.11° C | 40% | 1003.7 hPa | 0 mm | 2.24 m/s, 213° | - | - |
| 1777984605 | 16.67° C | 40% | 1003.8 hPa | 0 mm | 1.79 m/s, 303° | - | - |
| 1777984302 | 16.67° C | 39% | 1003.7 hPa | 0 mm | 3.13 m/s, 315° | - | - |
| 1777984046 | 17.22° C | 38% | 1003.7 hPa | 0 mm | 3.13 m/s, 292° | - | - |
| 1777984001 | 17.22° C | 38% | 1003.7 hPa | 0 mm | 3.13 m/s, 292° | - | - |
| 1777983698 | 17.22° C | 37% | 1003.5 hPa | 0 mm | 4.47 m/s, 270° | - | - |
| 1777983396 | 17.22° C | 31% | 1003.7 hPa | 0 mm | 1.79 m/s, 45° | - | - |
* Rain since midnight (hover to see other rain measurements)
** Current wind speed in m/s (hover to see current wind gust speed)